Time;durP1;ratioP1;P1;durP2;ratioP2;P2;SDS_P1;SDS_P2;PMS_P1;PMS_P2;Temp;Humidity;BMP_temperature;BMP_pressure;BME280_temperature;BME280_humidity;BME280_pressure;Samples;Min_cycle;Max_cycle;Signal;HPM_P1;HPM_P2
2023/07/27 00:01:12;;;;;;;9.75;4.85;;;;;;;16.63;69.90;101090.63;7389287;19;20023;-60
2023/07/27 00:03:40;;;;;;;10.25;4.40;;;;;;;16.63;69.83;101093.28;7388353;19;20015;-60
2023/07/27 00:06:07;;;;;;;9.35;4.60;;;;;;;16.58;69.89;101091.06;7386859;19;20014;-60
2023/07/27 00:08:35;;;;;;;7.70;3.95;;;;;;;16.57;69.74;101082.19;7392945;19;20038;-60
2023/07/27 00:11:02;;;;;;;8.55;4.28;;;;;;;16.61;69.32;101089.94;7394808;19;20104;-60
2023/07/27 00:13:30;;;;;;;9.73;4.18;;;;;;;16.56;69.59;101082.34;7393593;19;20415;-60
2023/07/27 00:15:58;;;;;;;9.15;4.68;;;;;;;16.53;69.64;101082.63;7393492;19;20043;-60
2023/07/27 00:18:25;;;;;;;10.13;4.65;;;;;;;16.49;69.46;101082.06;7395613;19;20492;-59
2023/07/27 00:20:52;;;;;;;9.30;4.35;;;;;;;16.45;69.68;101079.84;7394951;19;20491;-59
2023/07/27 00:23:19;;;;;;;9.43;4.40;;;;;;;16.50;69.38;101078.41;7394581;19;20047;-60
2023/07/27 00:25:47;;;;;;;9.65;4.30;;;;;;;16.44;69.48;101081.63;7393534;19;20031;-58
2023/07/27 00:28:14;;;;;;;10.02;4.35;;;;;;;16.40;69.69;101074.06;7396102;19;20019;-59
2023/07/27 00:30:41;;;;;;;8.63;4.50;;;;;;;16.43;69.42;101077.28;7394626;19;20011;-59
2023/07/27 00:33:09;;;;;;;11.43;4.43;;;;;;;16.24;69.83;101064.78;7393933;19;20375;-62
2023/07/27 00:35:37;;;;;;;9.23;4.72;;;;;;;16.26;70.01;101070.84;7392812;19;20536;-62
2023/07/27 00:38:04;;;;;;;9.50;4.80;;;;;;;16.34;69.77;101067.47;7395758;19;20010;-56
2023/07/27 00:40:32;;;;;;;7.95;4.18;;;;;;;16.30;69.55;101066.91;7393454;19;20022;-57
2023/07/27 00:42:59;;;;;;;9.32;4.43;;;;;;;16.28;69.79;101062.66;7395075;19;20019;-58
2023/07/27 00:45:28;;;;;;;10.77;5.00;;;;;;;16.21;69.96;101057.03;7393208;19;20018;-58
2023/07/27 00:47:56;;;;;;;10.15;5.00;;;;;;;16.24;69.49;101050.59;7394781;19;20018;-58
2023/07/27 00:50:23;;;;;;;11.10;4.80;;;;;;;16.21;69.88;101050.84;7393288;19;20022;-58
2023/07/27 00:52:51;;;;;;;11.25;4.68;;;;;;;16.22;69.51;101052.56;7394744;19;20014;-58
2023/07/27 00:55:18;;;;;;;9.50;4.75;;;;;;;16.23;69.59;101048.91;7393589;19;20026;-58
2023/07/27 00:57:45;;;;;;;11.35;4.95;;;;;;;16.22;69.57;101041.88;7394424;19;20019;-59
2023/07/27 01:00:14;;;;;;;9.50;4.57;;;;;;;16.13;70.03;101037.38;7393021;19;20021;-59
2023/07/27 01:02:41;;;;;;;10.85;5.15;;;;;;;16.11;69.95;101029.50;7394920;19;20035;-58
2023/07/27 01:05:09;;;;;;;9.35;4.72;;;;;;;16.17;69.62;101028.94;7392592;19;20056;-57
2023/07/27 01:07:37;;;;;;;10.45;5.03;;;;;;;16.12;69.75;101025.84;7394993;19;20019;-59
2023/07/27 01:10:04;;;;;;;9.98;5.38;;;;;;;16.14;70.00;101023.88;7392378;19;20390;-59
2023/07/27 01:12:39;;;;;;;9.55;4.80;;;;;;;16.20;69.80;101020.63;7395001;19;20429;-59
2023/07/27 01:15:18;;;;;;;8.43;4.68;;;;;;;16.18;69.70;101017.28;7392287;19;20086;-58
2023/07/27 01:18:07;;;;;;;7.47;4.43;;;;;;;16.19;70.08;101023.47;7394470;19;20038;-58
2023/07/27 01:20:49;;;;;;;7.82;4.40;;;;;;;16.18;70.04;101017.28;7391033;19;20095;-58
2023/07/27 01:23:45;;;;;;;8.30;4.55;;;;;;;16.19;70.08;101016.28;7394085;19;20023;-59
2023/07/27 01:26:50;;;;;;;9.43;4.75;;;;;;;16.25;70.04;101018.34;7391784;19;20489;-60
2023/07/27 01:29:42;;;;;;;10.82;5.10;;;;;;;16.18;70.62;101019.94;7393887;19;20042;-61
2023/07/27 01:32:12;;;;;;;10.90;5.38;;;;;;;16.19;70.37;101004.75;7392892;19;20515;-60
2023/07/27 01:34:43;;;;;;;11.57;5.32;;;;;;;16.27;70.40;100997.69;7397346;19;20078;-60
2023/07/27 01:37:15;;;;;;;8.73;4.85;;;;;;;16.29;70.30;100995.72;7393762;19;20355;-61
2023/07/27 01:39:47;;;;;;;8.55;5.10;;;;;;;16.26;70.47;100996.00;7391361;19;20022;-61
2023/07/27 01:42:15;;;;;;;12.48;5.35;;;;;;;16.20;70.80;100985.06;7392906;19;20014;-61
2023/07/27 01:44:44;;;;;;;10.20;5.40;;;;;;;16.21;71.08;100992.91;7392772;19;20374;-60
2023/07/27 01:47:13;;;;;;;9.77;4.90;;;;;;;16.21;71.16;100982.22;7392958;19;20027;-60
2023/07/27 01:49:42;;;;;;;9.32;5.32;;;;;;;16.23;70.99;100990.13;7393209;19;20022;-59
2023/07/27 01:52:11;;;;;;;10.25;5.20;;;;;;;16.26;70.83;100977.31;7393026;19;20019;-58
2023/07/27 01:54:39;;;;;;;11.13;5.00;;;;;;;16.22;71.03;100983.94;7392519;19;20100;-59
2023/07/27 01:57:08;;;;;;;10.32;5.80;;;;;;;16.30;71.16;100985.88;7390289;19;20488;-61
2023/07/27 01:59:38;;;;;;;10.40;5.00;;;;;;;16.27;71.30;100970.97;7390600;19;20163;-61
2023/07/27 02:02:06;;;;;;;10.13;5.70;;;;;;;16.29;71.08;100971.69;7393065;19;20018;-57
2023/07/27 02:04:34;;;;;;;8.48;4.90;;;;;;;16.32;71.24;100968.69;7391939;19;20042;-59
2023/07/27 02:07:02;;;;;;;10.93;5.78;;;;;;;16.29;71.52;100963.66;7390765;19;20477;-59
2023/07/27 02:09:29;;;;;;;11.10;5.85;;;;;;;16.35;71.28;100959.56;7392223;19;20014;-60
2023/07/27 02:12:05;;;;;;;9.85;5.28;;;;;;;16.43;71.01;100950.81;7392109;19;20519;-59
2023/07/27 02:14:45;;;;;;;10.98;5.93;;;;;;;16.40;70.89;100949.25;7391848;19;20051;-64
2023/07/27 02:17:20;;;;;;;10.52;5.70;;;;;;;16.42;70.90;100954.47;7391922;19;20022;-66
2023/07/27 02:19:55;;;;;;;10.23;5.53;;;;;;;16.41;70.74;100947.41;7389834;19;20026;-67
2023/07/27 02:22:24;;;;;;;8.15;5.30;;;;;;;16.38;71.24;100950.41;7389563;19;20027;-67
2023/07/27 02:24:51;;;;;;;10.63;5.60;;;;;;;16.34;71.25;100952.53;7388801;19;20018;-65
2023/07/27 02:27:19;;;;;;;9.32;5.72;;;;;;;16.27;71.16;100936.22;7392165;19;20018;-65
2023/07/27 02:29:46;;;;;;;10.30;5.60;;;;;;;16.33;71.26;100934.78;7390978;19;20011;-66
2023/07/27 02:32:13;;;;;;;10.68;6.00;;;;;;;16.30;71.15;100935.09;7392056;19;20026;-66
2023/07/27 02:34:41;;;;;;;10.63;5.85;;;;;;;16.36;70.71;100936.34;7393573;19;20039;-64
2023/07/27 02:37:08;;;;;;;10.52;5.68;;;;;;;16.30;70.71;100932.44;7391092;19;20035;-63
2023/07/27 02:39:35;;;;;;;10.23;5.50;;;;;;;16.19;71.28;100936.13;7390941;19;20022;-62
2023/07/27 02:42:03;;;;;;;10.73;5.53;;;;;;;16.19;71.28;100925.41;7390773;19;20018;-63
2023/07/27 02:44:30;;;;;;;11.18;5.85;;;;;;;16.24;71.12;100925.81;7390952;19;20022;-66
2023/07/27 02:46:57;;;;;;;10.48;5.80;;;;;;;16.33;70.88;100926.75;7389565;19;20026;-65
2023/07/27 02:49:25;;;;;;;11.18;5.50;;;;;;;16.33;70.58;100927.63;7391170;19;20011;-64
2023/07/27 02:51:52;;;;;;;12.40;6.10;;;;;;;16.25;71.20;100923.97;7390705;19;20492;-66
2023/07/27 02:54:19;;;;;;;11.63;5.88;;;;;;;16.27;71.18;100917.50;7391358;19;20039;-67
2023/07/27 02:56:48;;;;;;;10.95;6.20;;;;;;;16.25;71.10;100914.13;7387826;19;20023;-66
2023/07/27 02:59:16;;;;;;;10.15;6.10;;;;;;;16.29;70.87;100915.56;7390423;19;20015;-66
2023/07/27 03:01:43;;;;;;;10.27;5.70;;;;;;;16.28;71.05;100919.19;7390986;19;20014;-65
2023/07/27 03:04:10;;;;;;;11.05;6.35;;;;;;;16.28;70.92;100923.69;7390546;19;20022;-65
2023/07/27 03:06:39;;;;;;;9.45;5.68;;;;;;;16.37;70.70;100921.97;7388724;19;20019;-66
2023/07/27 03:09:06;;;;;;;9.35;5.57;;;;;;;16.43;70.52;100927.59;7390768;19;20038;-66
2023/07/27 03:11:36;;;;;;;9.88;5.50;;;;;;;16.48;70.47;100919.13;7390309;19;20037;-66
2023/07/27 03:14:04;;;;;;;11.52;7.00;;;;;;;16.47;70.24;100917.44;7390072;19;20014;-64
2023/07/27 03:16:31;;;;;;;12.55;6.70;;;;;;;16.44;70.55;100907.88;7387785;19;20576;-66
2023/07/27 03:18:59;;;;;;;12.05;6.65;;;;;;;16.44;70.41;100905.19;7390015;19;20033;-66
2023/07/27 03:21:27;;;;;;;11.57;6.65;;;;;;;16.39;70.64;100906.66;7388512;19;20022;-66
2023/07/27 03:23:54;;;;;;;10.68;6.70;;;;;;;16.41;70.50;100900.16;7390248;19;20023;-66
2023/07/27 03:26:22;;;;;;;12.40;6.90;;;;;;;16.39;70.42;100901.28;7388108;19;20019;-65
2023/07/27 03:28:49;;;;;;;11.75;7.10;;;;;;;16.38;70.63;100896.94;7389816;19;20014;-64
2023/07/27 03:31:18;;;;;;;10.57;6.30;;;;;;;16.35;71.17;100895.41;7389765;19;20043;-63
2023/07/27 03:33:47;;;;;;;10.85;6.50;;;;;;;16.39;70.75;100888.78;7392217;19;20056;-63
2023/07/27 03:36:18;;;;;;;12.02;6.78;;;;;;;16.30;71.06;100895.00;7388426;19;20018;-63
2023/07/27 03:38:47;;;;;;;12.32;7.47;;;;;;;16.26;71.17;100890.94;7389810;19;20101;-63
2023/07/27 03:41:14;;;;;;;13.10;7.47;;;;;;;16.36;70.89;100888.22;7386397;19;20018;-65
2023/07/27 03:43:42;;;;;;;11.30;6.50;;;;;;;16.39;70.65;100879.91;7396691;19;20143;-64
2023/07/27 03:46:09;;;;;;;10.52;6.13;;;;;;;16.33;70.93;100886.69;7394539;19;20023;-64
2023/07/27 03:48:36;;;;;;;13.50;7.45;;;;;;;16.30;71.12;100878.97;7397660;19;20043;-64
2023/07/27 03:51:04;;;;;;;10.68;6.55;;;;;;;16.36;70.67;100877.53;7397193;19;20018;-64
2023/07/27 03:53:31;;;;;;;12.10;6.82;;;;;;;16.30;70.95;100862.94;7396967;19;20527;-63
2023/07/27 03:56:01;;;;;;;11.52;6.63;;;;;;;16.35;70.99;100870.50;7394129;19;20094;-63
2023/07/27 03:58:28;;;;;;;10.85;6.25;;;;;;;16.36;71.18;100873.03;7396967;19;20056;-63
2023/07/27 04:00:56;;;;;;;11.73;6.80;;;;;;;16.43;70.96;100866.09;7394682;19;20014;-63
2023/07/27 04:03:24;;;;;;;10.82;6.28;;;;;;;16.41;70.88;100859.22;7396476;19;20028;-63
2023/07/27 04:05:52;;;;;;;11.80;6.70;;;;;;;16.40;71.02;100861.03;7394512;19;20026;-63
2023/07/27 04:08:19;;;;;;;11.95;6.38;;;;;;;16.43;71.06;100854.56;7394804;19;20022;-64
2023/07/27 04:10:46;;;;;;;10.82;6.00;;;;;;;16.43;70.91;100852.72;7396522;19;20040;-63
2023/07/27 04:13:13;;;;;;;13.85;6.68;;;;;;;16.44;71.01;100843.72;7395993;19;20020;-63
2023/07/27 04:15:42;;;;;;;10.57;6.30;;;;;;;16.45;71.08;100844.59;7392991;19;20048;-63
2023/07/27 04:18:10;;;;;;;13.95;6.78;;;;;;;16.40;70.92;100839.66;7396157;19;20086;-62
2023/07/27 04:20:37;;;;;;;13.55;7.00;;;;;;;16.41;70.92;100833.34;7395077;19;20090;-62
2023/07/27 04:23:05;;;;;;;11.70;6.68;;;;;;;16.46;71.37;100830.22;7396056;19;20014;-61
2023/07/27 04:25:32;;;;;;;11.07;6.93;;;;;;;16.44;71.11;100821.50;7393770;19;20112;-63
2023/07/27 04:28:00;;;;;;;13.00;6.45;;;;;;;16.47;71.22;100829.22;7395671;19;20039;-62
2023/07/27 04:30:28;;;;;;;14.05;7.40;;;;;;;16.28;71.81;100831.00;7394060;19;20611;-63
2023/07/27 04:32:55;;;;;;;11.80;6.78;;;;;;;16.36;71.69;100821.41;7394631;19;20489;-62
2023/07/27 04:35:22;;;;;;;10.00;6.07;;;;;;;16.45;71.38;100807.16;7394087;19;20022;-67
2023/07/27 04:37:50;;;;;;;11.02;6.70;;;;;;;16.41;71.40;100817.31;7395506;19;20015;-67
2023/07/27 04:40:19;;;;;;;13.45;7.78;;;;;;;16.24;72.22;100826.94;7394387;19;20374;-67
2023/07/27 04:42:46;;;;;;;12.30;7.10;;;;;;;16.14;72.79;100828.84;7395306;19;20644;-62
2023/07/27 04:45:13;;;;;;;13.32;6.97;;;;;;;16.28;72.14;100828.31;7393703;19;20022;-61
2023/07/27 04:47:41;;;;;;;12.85;6.65;;;;;;;16.37;71.72;100825.75;7395384;19;20014;-61
2023/07/27 04:50:09;;;;;;;12.23;7.15;;;;;;;16.38;71.77;100825.63;7393505;19;20019;-61
2023/07/27 04:52:36;;;;;;;13.00;6.68;;;;;;;16.44;71.65;100826.84;7393862;19;20034;-62
2023/07/27 04:55:04;;;;;;;12.07;6.95;;;;;;;16.48;71.35;100818.41;7391570;19;20030;-62
2023/07/27 04:57:31;;;;;;;11.05;6.68;;;;;;;16.49;71.42;100805.88;7395157;19;20389;-61
2023/07/27 04:59:58;;;;;;;12.18;6.75;;;;;;;16.60;71.21;100811.00;7393129;19;20035;-61
2023/07/27 05:02:25;;;;;;;12.55;6.88;;;;;;;16.67;70.97;100811.22;7394423;19;20022;-61
2023/07/27 05:04:53;;;;;;;12.73;7.45;;;;;;;16.55;70.72;100803.41;7393867;19;20375;-61
2023/07/27 05:07:20;;;;;;;11.65;6.80;;;;;;;16.60;70.47;100797.63;7394737;19;20035;-61
2023/07/27 05:09:48;;;;;;;10.40;6.63;;;;;;;16.70;70.13;100800.22;7394709;19;20063;-62
2023/07/27 05:12:15;;;;;;;11.63;6.55;;;;;;;16.74;70.22;100801.63;7394110;19;20014;-61
2023/07/27 05:14:42;;;;;;;12.35;7.03;;;;;;;16.68;70.45;100802.22;7393204;19;20031;-61
2023/07/27 05:17:10;;;;;;;11.23;7.13;;;;;;;16.64;69.89;100799.00;7391974;19;20450;-61
2023/07/27 05:19:37;;;;;;;12.18;6.53;;;;;;;16.67;69.56;100800.53;7394442;19;20006;-61
2023/07/27 05:22:04;;;;;;;13.38;7.00;;;;;;;16.73;69.32;100800.78;7389773;19;20365;-61
2023/07/27 05:24:32;;;;;;;13.25;7.32;;;;;;;16.71;69.12;100793.88;7394025;19;20010;-61
2023/07/27 05:26:59;;;;;;;12.50;7.07;;;;;;;16.77;68.98;100799.50;7391737;19;20139;-61
2023/07/27 05:29:26;;;;;;;11.80;6.55;;;;;;;16.77;69.20;100801.34;7393861;19;20030;-61
2023/07/27 05:31:54;;;;;;;9.95;5.85;;;;;;;16.74;69.12;100797.13;7394290;19;20070;-61
2023/07/27 05:34:21;;;;;;;11.40;7.03;;;;;;;16.69;69.14;100798.56;7396885;19;20117;-61
2023/07/27 05:36:49;;;;;;;12.38;6.50;;;;;;;16.71;69.17;100802.78;7392052;19;20353;-61
2023/07/27 05:39:16;;;;;;;14.55;6.68;;;;;;;16.78;68.77;100806.53;7392097;19;20348;-61
2023/07/27 05:41:43;;;;;;;11.68;6.28;;;;;;;16.78;69.00;100814.53;7392468;19;20022;-65
2023/07/27 05:44:10;;;;;;;10.23;6.60;;;;;;;16.81;68.99;100808.06;7393032;19;20035;-61
2023/07/27 05:46:38;;;;;;;12.07;6.43;;;;;;;16.75;69.22;100803.31;7391080;19;20022;-62
2023/07/27 05:49:05;;;;;;;12.55;6.63;;;;;;;16.70;69.65;100802.91;7392837;19;20018;-63
2023/07/27 05:51:36;;;;;;;13.63;6.95;;;;;;;16.77;69.49;100796.81;7393274;19;20480;-65
2023/07/27 05:54:04;;;;;;;11.05;6.30;;;;;;;16.69;69.71;100798.56;7393090;19;20018;-65
2023/07/27 05:56:31;;;;;;;12.18;6.70;;;;;;;16.76;69.56;100805.00;7390343;19;20014;-64
2023/07/27 05:58:59;;;;;;;12.75;7.20;;;;;;;16.73;69.75;100794.56;7393232;19;20020;-64
2023/07/27 06:01:26;;;;;;;11.27;6.70;;;;;;;16.75;70.08;100804.19;7391215;19;20555;-64
2023/07/27 06:03:57;;;;;;;15.13;6.97;;;;;;;16.69;70.37;100796.72;7392748;19;20496;-63
2023/07/27 06:06:34;;;;;;;11.15;6.78;;;;;;;16.67;70.89;100797.84;7389182;19;20022;-63
2023/07/27 06:09:03;;;;;;;11.38;6.90;;;;;;;16.73;70.98;100798.13;7392752;19;20014;-63
2023/07/27 06:11:30;;;;;;;11.75;7.15;;;;;;;16.75;71.60;100790.81;7390671;19;20082;-61
2023/07/27 06:13:57;;;;;;;12.60;6.90;;;;;;;16.84;71.32;100791.72;7392396;19;20723;-61
2023/07/27 06:16:25;;;;;;;13.73;6.40;;;;;;;16.89;71.56;100789.41;7389742;19;20625;-61
2023/07/27 06:18:52;;;;;;;12.38;6.88;;;;;;;16.87;72.01;100782.56;7392376;19;20029;-61
2023/07/27 06:21:19;;;;;;;12.25;6.50;;;;;;;16.92;72.01;100783.75;7390779;19;20014;-61
2023/07/27 06:23:46;;;;;;;10.60;6.38;;;;;;;16.92;72.07;100783.75;7392408;19;20018;-61
2023/07/27 06:26:14;;;;;;;11.52;6.63;;;;;;;16.92;72.53;100780.25;7390321;19;20010;-64
2023/07/27 06:28:41;;;;;;;11.70;6.55;;;;;;;16.92;72.64;100786.44;7391391;19;20394;-64
2023/07/27 06:31:09;;;;;;;10.10;5.78;;;;;;;16.93;72.73;100779.25;7391932;19;20134;-63
2023/07/27 06:33:37;;;;;;;12.00;6.40;;;;;;;16.96;72.70;100773.59;7393763;19;20018;-63
2023/07/27 06:36:07;;;;;;;11.38;6.30;;;;;;;16.86;73.09;100778.16;7390276;19;20097;-64
2023/07/27 06:38:34;;;;;;;13.15;6.40;;;;;;;16.90;73.18;100780.38;7391726;19;20019;-64
2023/07/27 06:41:04;;;;;;;11.57;6.72;;;;;;;16.95;73.15;100782.63;7391269;19;20345;-66
2023/07/27 06:43:32;;;;;;;12.13;6.50;;;;;;;16.92;73.14;100764.19;7391688;19;20024;-64
2023/07/27 06:45:59;;;;;;;11.73;6.90;;;;;;;16.91;73.33;100765.19;7387838;19;20043;-64
2023/07/27 06:48:27;;;;;;;12.10;6.50;;;;;;;16.94;73.55;100756.84;7391184;19;20025;-63
2023/07/27 06:50:54;;;;;;;11.32;6.68;;;;;;;16.94;73.88;100756.84;7391499;19;20342;-63
2023/07/27 06:53:22;;;;;;;12.63;6.60;;;;;;;17.03;73.42;100747.91;7391311;19;20047;-64
2023/07/27 06:55:49;;;;;;;12.57;6.45;;;;;;;17.06;73.13;100752.94;7389142;19;20035;-64
2023/07/27 06:58:16;;;;;;;11.57;6.68;;;;;;;17.07;73.57;100754.63;7390840;19;20014;-64
2023/07/27 07:00:44;;;;;;;13.02;7.03;;;;;;;17.07;73.84;100757.31;7390494;19;20048;-65
2023/07/27 07:03:12;;;;;;;12.75;6.70;;;;;;;17.14;74.23;100760.19;7390951;19;20014;-66
2023/07/27 07:05:39;;;;;;;13.57;7.22;;;;;;;17.20;73.80;100756.88;7387682;19;20018;-65
2023/07/27 07:08:06;;;;;;;11.77;6.38;;;;;;;17.20;74.12;100756.88;7390626;19;20372;-64
2023/07/27 07:10:34;;;;;;;12.07;6.75;;;;;;;17.16;74.13;100760.88;7390782;19;20015;-64
2023/07/27 07:13:01;;;;;;;11.32;7.20;;;;;;;17.20;73.83;100755.03;7390176;19;20022;-64
2023/07/27 07:15:28;;;;;;;10.88;6.20;;;;;;;17.24;73.90;100753.72;7388786;19;20043;-63
2023/07/27 07:17:56;;;;;;;12.75;7.10;;;;;;;17.26;73.71;100750.91;7394780;19;20025;-64
2023/07/27 07:20:23;;;;;;;10.80;6.57;;;;;;;17.30;74.16;100746.94;7397948;19;20022;-65
2023/07/27 07:22:51;;;;;;;12.60;6.90;;;;;;;17.27;73.99;100749.91;7395698;19;20018;-64
2023/07/27 07:25:18;;;;;;;13.75;7.43;;;;;;;17.23;74.08;100749.38;7395180;19;20072;-63
2023/07/27 07:27:45;;;;;;;11.40;6.90;;;;;;;17.22;74.41;100736.16;7396801;19;20547;-64
2023/07/27 07:30:13;;;;;;;11.07;7.15;;;;;;;17.29;74.13;100739.91;7397724;19;20024;-64
2023/07/27 07:32:40;;;;;;;12.43;6.90;;;;;;;17.33;74.04;100735.91;7397225;19;20014;-64
2023/07/27 07:35:08;;;;;;;12.85;7.07;;;;;;;17.28;74.35;100733.72;7396733;19;20381;-64
2023/07/27 07:37:39;;;;;;;10.93;6.40;;;;;;;17.30;74.48;100736.22;7397641;19;20018;-63
2023/07/27 07:40:07;;;;;;;11.13;6.53;;;;;;;17.47;74.31;100727.28;7397759;19;20018;-65
2023/07/27 07:42:34;;;;;;;12.45;6.63;;;;;;;17.57;74.50;100711.09;7394477;19;20043;-64
2023/07/27 07:45:02;;;;;;;11.35;6.53;;;;;;;17.59;74.03;100717.16;7396686;19;20025;-63
2023/07/27 07:47:30;;;;;;;12.15;6.53;;;;;;;17.57;73.81;100716.47;7394050;19;20025;-64
2023/07/27 07:49:58;;;;;;;11.50;6.30;;;;;;;17.67;73.94;100716.38;7397245;19;20010;-64
2023/07/27 07:52:26;;;;;;;11.07;6.93;;;;;;;17.68;74.18;100723.38;7396672;19;20022;-64
2023/07/27 07:54:53;;;;;;;11.75;6.45;;;;;;;17.65;73.86;100708.47;7395980;19;20036;-62
2023/07/27 07:57:20;;;;;;;10.75;6.72;;;;;;;17.66;74.13;100710.13;7394419;19;20015;-63
2023/07/27 07:59:48;;;;;;;11.63;6.40;;;;;;;17.64;74.19;100703.28;7396664;19;20026;-63
2023/07/27 08:02:15;;;;;;;11.25;6.68;;;;;;;17.66;74.39;100696.75;7395145;19;20007;-63
2023/07/27 08:04:42;;;;;;;11.85;6.55;;;;;;;17.70;74.36;100698.09;7395563;19;20075;-63
2023/07/27 08:07:09;;;;;;;10.88;6.40;;;;;;;17.68;74.20;100702.78;7394564;19;20030;-62
2023/07/27 08:09:37;;;;;;;11.40;6.63;;;;;;;17.64;74.54;100695.25;7396073;19;20515;-62
2023/07/27 08:12:05;;;;;;;12.63;6.20;;;;;;;17.76;74.31;100691.31;7394057;19;20484;-65
2023/07/27 08:14:32;;;;;;;9.90;6.18;;;;;;;17.76;74.28;100684.13;7395533;19;20373;-65
2023/07/27 08:17:00;;;;;;;13.18;6.65;;;;;;;17.75;74.39;100689.66;7393872;19;20015;-65
2023/07/27 08:19:27;;;;;;;10.88;6.65;;;;;;;17.75;74.26;100687.78;7396230;19;20018;-64
2023/07/27 08:21:55;;;;;;;12.82;6.70;;;;;;;17.90;73.62;100684.50;7394855;19;20015;-65
2023/07/27 08:24:24;;;;;;;10.00;6.10;;;;;;;17.97;73.97;100670.31;7396109;19;20010;-63
2023/07/27 08:26:52;;;;;;;13.00;7.00;;;;;;;17.90;74.48;100676.47;7393493;19;20029;-63
2023/07/27 08:29:19;;;;;;;10.57;6.00;;;;;;;18.06;73.95;100671.16;7394941;19;20015;-62
2023/07/27 08:31:46;;;;;;;10.32;6.22;;;;;;;18.23;73.96;100669.34;7395702;19;20010;-61
2023/07/27 08:34:14;;;;;;;10.10;5.72;;;;;;;18.36;73.11;100663.50;7398655;19;20022;-62
2023/07/27 08:36:41;;;;;;;10.60;6.57;;;;;;;18.44;72.94;100656.28;7393180;19;20014;-62
2023/07/27 08:39:08;;;;;;;11.43;6.50;;;;;;;18.52;73.34;100666.19;7395375;19;20042;-61
2023/07/27 08:41:36;;;;;;;10.23;6.03;;;;;;;18.46;73.20;100658.78;7393025;19;20014;-61
2023/07/27 08:44:04;;;;;;;12.10;6.55;;;;;;;18.33;73.29;100655.78;7395397;19;20014;-62
2023/07/27 08:46:32;;;;;;;11.70;5.95;;;;;;;18.30;73.14;100656.94;7392261;19;20010;-61
2023/07/27 08:49:01;;;;;;;11.38;6.10;;;;;;;18.30;73.17;100656.94;7395273;19;20019;-61
2023/07/27 08:51:34;;;;;;;11.63;5.82;;;;;;;18.30;73.52;100656.13;7394451;19;20018;-61
2023/07/27 08:54:01;;;;;;;12.67;5.83;;;;;;;18.20;73.59;100649.06;7397868;19;20018;-62
2023/07/27 08:56:29;;;;;;;10.50;5.43;;;;;;;18.07;74.05;100645.19;7393399;19;20015;-61
2023/07/27 08:58:57;;;;;;;10.60;5.38;;;;;;;18.08;73.41;100647.69;7397004;19;20018;-61
2023/07/27 09:01:26;;;;;;;10.57;5.30;;;;;;;18.09;73.18;100641.34;7396819;19;20014;-64
2023/07/27 09:03:53;;;;;;;10.57;5.53;;;;;;;18.06;73.68;100638.16;7398063;19;20018;-63
2023/07/27 09:06:40;;;;;;;8.88;5.45;;;;;;;18.11;73.66;100644.69;7392737;19;20026;-65
2023/07/27 09:09:23;;;;;;;9.70;5.93;;;;;;;18.10;74.03;100636.81;7393704;19;20021;-65
2023/07/27 09:11:52;;;;;;;10.75;5.50;;;;;;;18.05;74.12;100634.63;7394384;19;20118;-63
2023/07/27 09:14:19;;;;;;;9.85;5.50;;;;;;;18.16;73.97;100636.16;7392578;19;20349;-64
2023/07/27 09:16:48;;;;;;;9.35;5.82;;;;;;;18.27;73.68;100623.25;7392043;19;20014;-64
2023/07/27 09:19:17;;;;;;;9.57;5.55;;;;;;;18.44;73.11;100616.06;7393749;19;20101;-63
2023/07/27 09:21:48;;;;;;;11.57;5.35;;;;;;;18.61;72.36;100614.22;7393650;19;20408;-63
2023/07/27 09:24:16;;;;;;;13.68;6.18;;;;;;;18.64;72.46;100613.88;7393617;19;20022;-61
2023/07/27 09:26:48;;;;;;;12.45;5.25;;;;;;;18.57;72.62;100607.50;7391397;19;20019;-63
2023/07/27 09:29:17;;;;;;;9.40;5.28;;;;;;;18.66;71.91;100606.50;7391440;19;20013;-62
2023/07/27 09:31:49;;;;;;;10.13;5.68;;;;;;;18.81;71.95;100605.84;7393018;19;20015;-63
2023/07/27 09:34:18;;;;;;;8.70;5.18;;;;;;;18.74;71.38;100594.97;7396523;19;20038;-64
2023/07/27 09:36:47;;;;;;;11.35;4.88;;;;;;;18.67;71.59;100596.63;7388496;19;20018;-63
2023/07/27 09:39:17;;;;;;;12.75;5.20;;;;;;;18.57;71.93;100596.78;7391971;19;20046;-63
2023/07/27 09:41:46;;;;;;;9.57;4.75;;;;;;;18.59;71.75;100592.09;7390066;19;20019;-63
2023/07/27 09:44:14;;;;;;;10.88;5.25;;;;;;;18.56;71.98;100588.91;7393294;19;20021;-63
2023/07/27 09:46:44;;;;;;;9.07;4.43;;;;;;;18.44;72.21;100593.78;7390323;19;20437;-62
2023/07/27 09:49:13;;;;;;;8.48;4.88;;;;;;;18.41;72.36;100589.59;7393030;19;20050;-62
2023/07/27 09:51:41;;;;;;;9.55;4.82;;;;;;;18.39;72.43;100591.63;7390845;19;20521;-62
2023/07/27 09:54:08;;;;;;;8.05;4.70;;;;;;;18.39;72.56;100580.88;7391911;19;20539;-63
2023/07/27 09:56:37;;;;;;;11.77;5.20;;;;;;;18.46;73.29;100587.22;7389257;19;20023;-62
2023/07/27 09:59:05;;;;;;;10.65;5.22;;;;;;;18.62;72.90;100581.03;7390372;19;20021;-62
2023/07/27 10:01:33;;;;;;;9.02;4.80;;;;;;;18.78;72.69;100576.69;7390119;19;20493;-62
2023/07/27 10:04:00;;;;;;;9.45;5.10;;;;;;;18.76;72.70;100571.47;7392241;19;20014;-63
2023/07/27 10:06:29;;;;;;;10.45;4.72;;;;;;;18.61;72.86;100575.81;7388156;19;20022;-63
2023/07/27 10:08:57;;;;;;;10.27;4.70;;;;;;;18.61;72.68;100573.16;7391572;19;20106;-63
2023/07/27 10:11:59;;;;;;;10.98;5.10;;;;;;;18.71;73.02;100568.47;7392737;19;20486;-63
2023/07/27 10:14:28;;;;;;;8.23;4.35;;;;;;;18.59;73.01;100569.81;7389823;19;20773;-63
2023/07/27 10:17:07;;;;;;;9.27;5.05;;;;;;;18.56;72.99;100567.47;7388394;19;20081;-62
2023/07/27 10:19:42;;;;;;;9.25;4.53;;;;;;;18.47;73.33;100566.63;7392258;19;20344;-64
2023/07/27 10:22:14;;;;;;;11.90;4.57;;;;;;;18.49;73.25;100567.28;7391284;19;20022;-63
2023/07/27 10:24:50;;;;;;;9.88;5.13;;;;;;;18.45;73.11;100560.59;7389118;19;20101;-62
2023/07/27 10:27:21;;;;;;;10.10;4.88;;;;;;;18.39;73.43;100564.81;7389505;19;20031;-63
2023/07/27 10:30:10;;;;;;;9.85;4.78;;;;;;;18.46;72.94;100559.56;7391780;19;20029;-62
2023/07/27 10:32:38;;;;;;;8.13;4.45;;;;;;;18.31;73.89;100555.91;7391213;19;20051;-63
2023/07/27 10:35:07;;;;;;;6.60;3.92;;;;;;;18.33;73.45;100559.25;7393860;19;20393;-62
2023/07/27 10:37:54;;;;;;;9.02;4.63;;;;;;;18.34;74.30;100555.56;7390656;19;20031;-62
2023/07/27 10:40:25;;;;;;;7.60;4.15;;;;;;;18.25;74.29;100552.06;7391279;19;20015;-63
2023/07/27 10:42:57;;;;;;;9.05;4.28;;;;;;;18.19;74.77;100547.38;7388545;19;20026;-63
2023/07/27 10:45:28;;;;;;;8.85;4.85;;;;;;;18.19;75.22;100542.84;7388734;19;20010;-62
2023/07/27 10:47:56;;;;;;;9.07;4.43;;;;;;;18.05;75.79;100540.84;7389580;19;20043;-64
2023/07/27 10:50:24;;;;;;;7.22;3.70;;;;;;;18.05;75.45;100540.84;7391228;19;20138;-62
2023/07/27 10:52:53;;;;;;;6.97;3.92;;;;;;;18.16;75.55;100542.34;7390602;19;20090;-63
2023/07/27 10:55:21;;;;;;;8.07;3.90;;;;;;;18.14;75.38;100539.00;7389706;19;20022;-64
2023/07/27 10:57:52;;;;;;;6.45;3.70;;;;;;;18.15;75.44;100544.19;7391322;19;20474;-64
2023/07/27 11:00:34;;;;;;;6.43;3.08;;;;;;;18.21;75.12;100537.31;7389865;19;20018;-64
2023/07/27 11:03:02;;;;;;;6.88;3.38;;;;;;;18.16;75.47;100529.78;7388431;19;20490;-62
2023/07/27 11:05:30;;;;;;;4.85;2.80;;;;;;;18.22;75.52;100531.78;7389281;19;20385;-63
2023/07/27 11:08:01;;;;;;;5.47;3.00;;;;;;;18.36;75.17;100527.59;7388931;19;20060;-63
2023/07/27 11:10:30;;;;;;;4.80;2.65;;;;;;;18.40;75.22;100528.09;7389989;19;20130;-62
2023/07/27 11:12:57;;;;;;;5.13;2.80;;;;;;;18.46;75.21;100519.34;7390857;19;20019;-63
2023/07/27 11:15:26;;;;;;;4.00;2.60;;;;;;;18.47;75.35;100521.88;7389717;19;20042;-63
2023/07/27 11:17:56;;;;;;;5.57;2.72;;;;;;;18.41;75.59;100525.22;7390973;19;20018;-62
2023/07/27 11:20:25;;;;;;;4.70;2.40;;;;;;;18.48;75.75;100517.34;7391302;19;20015;-62
2023/07/27 11:22:55;;;;;;;4.28;2.50;;;;;;;18.48;76.19;100522.72;7388766;19;20492;-64
2023/07/27 11:25:23;;;;;;;5.25;2.70;;;;;;;18.32;76.69;100512.03;7388878;19;20014;-64
2023/07/27 11:27:53;;;;;;;4.38;2.45;;;;;;;18.40;76.49;100510.16;7387840;19;20364;-63